Nearby METAR Reports

 

KNUQ - Moffett Nas/Mtn, California, USA
Distance from station: N 9mi, 14km
Updated: Sun, 15-Nov-2020 2:00am PST
NOT Current
Clear
Clear
 Wind from calm
Wind: Calm
Temperature: 43°F , 6°C
Dew Point: 41°F , 5°C
Humidity: 93%
Barometer: 30.28 inHg , 1025.4 hPa
Clouds: Clear
Visibility: 10 miles , 16 km
2020/11/15 10:00 KNUQ 151000Z AUTO 00000KT 10SM CLR 06/05 A3028 RMK AO2
KSJC - San Jose, California, USA
Distance from station: NE 9mi, 14km
Updated: Wed, 02-Dec-2020 6:53am PST
Few Clouds
Few Clouds
 Wind from calm
Wind: Calm
Temperature: 39°F , 4°C
Dew Point: 34°F , 1°C
Humidity: 81%
Barometer: 30.12 inHg , 1020 hPa
Clouds: Few Clouds
Visibility: 10 miles , 16 km
Cloud details: Few Clouds 9500 ft
2020/12/02 14:53 KSJC 021453Z 00000KT 10SM FEW095 04/01 A3012 RMK AO2 SLP198 T00440011 57002
 
KRHV - San Jose/Reid, California, USA
Distance from station: ENE 12mi, 19km
Updated: Wed, 02-Dec-2020 6:50am PST
Few Clouds
Few Clouds
 Wind from calm
Wind: Calm
Temperature: 39°F , 4°C
Dew Point: 34°F , 1°C
Humidity: 81%
Barometer: 30.12 inHg , 1020 hPa
Clouds: Few Clouds
Visibility: 10 miles , 16 km
Cloud details: Few Clouds 15000 ft
2020/12/02 14:50 KRHV 021450Z 00000KT 10SM FEW150 04/01 A3012
KPAO - Palo Alto, California, USA
Distance from station: NNW 14mi, 23km
Updated: Tue, 01-Dec-2020 6:47pm PST
NOT Current
Clear
Clear
 Wind from varies
Wind: varies 3 mph , 6 km/h
Temperature: 48°F , 9°C
Dew Point: 37°F , 3°C
Humidity: 66%
Barometer: 30.13 inHg , 1020.3 hPa
Clouds: Clear
Visibility: 10 miles , 16 km
2020/12/02 02:47 KPAO 020247Z VRB03KT 10SM SKC 09/03 A3013 RMK LAST
 
KSQL - San Carlos Airpo, California, USA
Distance from station: NW 21mi, 34km
Updated: Wed, 02-Dec-2020 6:55am PST
Clear
Clear
 Wind from calm
Wind: Calm
Temperature: 39°F , 4°C
Dew Point: 37°F , 3°C
Humidity: 93%
Barometer: 30.13 inHg , 1020.3 hPa
Clouds: Clear
Visibility: 10 miles , 16 km
2020/12/02 14:55 KSQL 021455Z AUTO 00000KT 10SM CLR 04/03 A3013 RMK AO2
KWVI - Watsonville, California, USA
Distance from station: SSE 27mi, 44km
Updated: Wed, 02-Dec-2020 6:53am PST
Clear
Clear
 Wind from WNW
Wind: WNW 5 mph , 7 km/h
Temperature: 39°F , 4°C
Wind Chill: 35°F , 2°C
Dew Point: 36°F , 2°C
Humidity: 87%
Barometer: 30.10 inHg , 1019.3 hPa
Clouds: Clear
Visibility: 10 miles , 16 km
2020/12/02 14:53 KWVI 021453Z AUTO 29004KT 10SM CLR 04/02 A3010 RMK AO2 SLP193 T00390017 56004
 
KHWD - Hayward, California, USA
Distance from station: N 28mi, 44km
Updated: Wed, 02-Dec-2020 6:54am PST
Clear
Clear
 Wind from E
Wind: E 5 mph , 7 km/h
Temperature: 45°F , 7°C
Wind Chill: 42°F , 6°C
Dew Point: 32°F , 0°C
Humidity: 61%
Barometer: 30.11 inHg , 1019.6 hPa
Clouds: Clear
Visibility: 10 miles , 16 km
2020/12/02 14:54 KHWD 021454Z 08004KT 10SM CLR 07/00 A3011 RMK AO2 SLP207 T00670000 55002
KSFO - San Francisco, California, USA
Distance from station: NW 30mi, 49km
Updated: Wed, 02-Dec-2020 6:56am PST
Few Clouds
Few Clouds
 Wind from calm
Wind: Calm
Temperature: 46°F , 8°C
Dew Point: 39°F , 4°C
Humidity: 76%
Barometer: 30.11 inHg , 1019.6 hPa
Clouds: Few Clouds
Visibility: 10 miles , 16 km
Cloud details: Few Clouds 20000 ft
2020/12/02 14:56 KSFO 021456Z 00000KT 10SM FEW200 08/04 A3011 RMK AO2 SLP197 T00780044 55002 $
 
KHAF - Half Moon Bay, California, USA
Distance from station: WNW 31mi, 50km
Updated: Wed, 02-Dec-2020 7:15am PST
Haze, Clear
Haze, Clear
 Wind from calm
Wind: Calm
Temperature: 45°F , 7°C
Dew Point: 37°F , 3°C
Humidity: 76%
Barometer: 30.09 inHg , 1019 hPa
Summary: Haze
Clouds: Clear
Visibility: 6 miles , 10 km
2020/12/02 15:15 KHAF 021515Z AUTO 00000KT 6SM HZ CLR 07/03 A3009 RMK AO2
KOAK - Oakland, California, USA
Distance from station: NNW 31mi, 50km
Updated: Wed, 02-Dec-2020 6:53am PST
Few Clouds
Few Clouds
 Wind from calm
Wind: Calm
Temperature: 41°F , 5°C
Dew Point: 34°F , 1°C
Humidity: 76%
Barometer: 30.13 inHg , 1020.3 hPa
Clouds: Few Clouds
Visibility: 10 miles , 16 km
Cloud details: Few Clouds 8000 ft
Few Clouds 18000 ft
2020/12/02 14:53 KOAK 021453Z 00000KT 10SM FEW080 FEW180 05/01 A3013 RMK AO2 SLP201 T00500011 55002
 
KLVK - Livermore, California, USA
Distance from station: NNE 31mi, 51km
Updated: Wed, 02-Dec-2020 6:53am PST
Clear
Clear
 Wind from E
Wind: E 3 mph , 6 km/h
Temperature: 36°F , 2°C
Dew Point: 28°F , -2°C
Humidity: 75%
Barometer: 30.13 inHg , 1020.3 hPa
Clouds: Clear
Visibility: 10 miles , 16 km
2020/12/02 14:53 KLVK 021453Z AUTO 09003KT 10SM CLR 02/M02 A3013 RMK AO2 SLP202 T00221017 53000
KCVH - Hollister Muni, California, USA
Distance from station: SE 42mi, 68km
Updated: Wed, 02-Dec-2020 7:15am PST
Clear
Clear
 Wind from SSE
Wind: SSE 3 mph , 6 km/h
Temperature: 34°F , 1°C
Dew Point: 23°F , -5°C
Humidity: 65%
Barometer: 30.13 inHg , 1020.3 hPa
Clouds: Clear
Visibility: 10 miles , 16 km
2020/12/02 15:15 KCVH 021515Z AUTO 15003KT 10SM CLR 01/M05 A3013 RMK A01
 
KSNS - Salinas, California, USA
Distance from station: SSE 48mi, 77km
Updated: Wed, 02-Dec-2020 6:53am PST
Clear
Clear
 Wind from SE
Wind: SE 9 mph , 15 km/h
Temperature: 41°F , 5°C
Wind Chill: 35°F , 2°C
Dew Point: 30°F , -1°C
Humidity: 66%
Barometer: 30.09 inHg , 1019 hPa
Clouds: Clear
Visibility: 10 miles , 16 km
2020/12/02 14:53 KSNS 021453Z 14008KT 10SM CLR 05/M01 A3009 RMK AO2 SLP200 T00501011 58002
KMRY - Monterey, California, USA
Distance from station: SSE 49mi, 78km
Updated: Wed, 02-Dec-2020 6:54am PST
Clear
Clear
 Wind from ESE
Wind: ESE 7 mph , 11 km/h
Temperature: 45°F , 7°C
Wind Chill: 41°F , 5°C
Dew Point: 32°F , 0°C
Humidity: 61%
Barometer: 30.07 inHg , 1018.3 hPa
Clouds: Clear
Visibility: 10 miles , 16 km
2020/12/02 14:54 KMRY 021454Z AUTO 11006KT 10SM CLR 07/00 A3007 RMK AO2 SLP196 T00670000 56008
 
KCCR - Concord, California, USA
Distance from station: N 50mi, 81km
Updated: Wed, 02-Dec-2020 6:53am PST
Clear
Clear
 Wind from calm
Wind: Calm
Temperature: 37°F , 3°C
Dew Point: 32°F , 0°C
Humidity: 81%
Barometer: 30.14 inHg , 1020.7 hPa
Clouds: Clear
Visibility: 10 miles , 16 km
2020/12/02 14:53 KCCR 021453Z AUTO 00000KT 10SM CLR 03/00 A3014 RMK AO2 SLP191 T00280000 53000

Metar display script from Saratoga-Weather.org